Time;durP1;ratioP1;P1;durP2;ratioP2;P2;SDS_P1;SDS_P2;PMS_P1;PMS_P2;Temp;Humidity;BMP_temperature;BMP_pressure;BME280_temperature;BME280_humidity;BME280_pressure;Samples;Min_cycle;Max_cycle;Signal;HPM_P1;HPM_P2
2023/05/09 00:00:50;;;;;;;40.67;28.52;;;14.70;99.90;;;;;;5037774;28;20439;-75
2023/05/09 00:03:16;;;;;;;44.15;29.45;;;14.90;99.90;;;;;;5049899;28;20798;-76
2023/05/09 00:05:42;;;;;;;40.67;29.08;;;14.80;99.90;;;;;;5047880;28;20465;-75
2023/05/09 00:08:08;;;;;;;43.83;31.48;;;14.90;99.90;;;;;;5045913;28;20421;-74
2023/05/09 00:10:33;;;;;;;42.47;30.67;;;14.60;99.90;;;;;;5033435;28;20452;-75
2023/05/09 00:12:59;;;;;;;48.25;32.10;;;14.50;99.90;;;;;;5059573;28;20423;-75
2023/05/09 00:15:25;;;;;;;44.17;30.60;;;14.60;99.90;;;;;;5046861;28;20425;-75
2023/05/09 00:17:51;;;;;;;45.33;31.27;;;14.60;99.90;;;;;;5040020;28;20925;-76
2023/05/09 00:20:17;;;;;;;45.58;32.08;;;14.50;99.90;;;;;;5050189;28;21147;-76
2023/05/09 00:22:43;;;;;;;48.05;32.75;;;14.60;99.90;;;;;;5048031;28;20411;-75
2023/05/09 00:25:10;;;;;;;51.67;33.60;;;14.50;99.90;;;;;;5044654;28;20495;-75
2023/05/09 00:27:35;;;;;;;50.53;32.80;;;14.40;99.90;;;;;;5054848;28;20530;-76
2023/05/09 00:30:03;;;;;;;56.47;36.57;;;14.50;99.90;;;;;;5049520;28;20504;-75
2023/05/09 00:32:29;;;;;;;53.25;36.40;;;14.80;99.90;;;;;;5042516;28;20912;-76
2023/05/09 00:34:55;;;;;;;54.40;35.17;;;14.70;99.90;;;;;;5044696;28;20409;-75
2023/05/09 00:37:20;;;;;;;51.27;35.27;;;14.40;99.90;;;;;;5044701;28;21045;-75
2023/05/09 00:39:47;;;;;;;60.90;36.80;;;14.50;99.90;;;;;;5042993;28;20716;-75
2023/05/09 00:42:13;;;;;;;60.23;37.33;;;14.60;99.90;;;;;;5043071;28;21201;-75
2023/05/09 00:44:38;;;;;;;63.55;39.97;;;14.60;99.90;;;;;;5051297;28;20427;-76
2023/05/09 00:47:05;;;;;;;65.53;38.57;;;14.70;99.90;;;;;;5056740;28;20433;-75
2023/05/09 00:49:31;;;;;;;70.63;41.97;;;14.40;99.90;;;;;;5054023;28;20931;-75
2023/05/09 00:51:58;;;;;;;63.17;39.25;;;14.70;99.90;;;;;;5052509;28;20419;-75
2023/05/09 00:54:24;;;;;;;59.50;39.85;;;14.50;99.90;;;;;;5061978;28;20493;-75
2023/05/09 00:56:50;;;;;;;69.43;41.85;;;14.70;99.90;;;;;;5047231;28;20503;-76
2023/05/09 00:59:16;;;;;;;68.85;41.40;;;14.60;99.90;;;;;;5028519;28;20647;-75
2023/05/09 01:04:19;;;;;;;69.72;43.42;;;14.70;99.90;;;;;;4992361;26;20440;-77
2023/05/09 01:07:00;;;;;;;79.87;45.73;;;14.60;99.90;;;;;;5047594;28;20503;-75
2023/05/09 01:09:44;;;;;;;70.03;43.15;;;14.90;99.90;;;;;;5042420;28;20463;-75
2023/05/09 01:12:25;;;;;;;74.20;44.60;;;14.90;99.90;;;;;;5050354;28;20435;-75
2023/05/09 01:15:19;;;;;;;81.82;45.20;;;14.70;99.90;;;;;;5063914;28;20428;-75
2023/05/09 01:17:59;;;;;;;76.07;45.65;;;14.90;99.90;;;;;;5046927;28;20492;-76
2023/05/09 01:20:34;;;;;;;71.65;42.63;;;14.70;99.90;;;;;;5056076;28;20425;-76
2023/05/09 01:23:13;;;;;;;72.10;42.63;;;14.60;99.90;;;;;;5048023;28;20425;-76
2023/05/09 01:26:03;;;;;;;72.22;42.40;;;14.50;99.90;;;;;;5045087;28;20433;-75
2023/05/09 01:28:50;;;;;;;75.38;43.60;;;14.70;99.90;;;;;;5054481;28;20417;-75
2023/05/09 01:31:16;;;;;;;68.47;42.97;;;14.70;99.90;;;;;;5048394;28;20425;-75
2023/05/09 01:33:47;;;;;;;69.83;41.97;;;14.70;99.90;;;;;;5049547;28;20753;-76
2023/05/09 01:36:16;;;;;;;72.67;45.47;;;14.80;99.90;;;;;;5044149;28;20425;-76
2023/05/09 01:38:43;;;;;;;74.78;44.05;;;14.60;99.90;;;;;;5048311;28;20957;-75
2023/05/09 01:41:11;;;;;;;74.67;45.20;;;14.90;99.90;;;;;;5037536;28;20423;-76
2023/05/09 01:43:37;;;;;;;69.70;43.30;;;14.90;99.90;;;;;;5046510;28;20487;-76
2023/05/09 01:46:05;;;;;;;71.45;43.83;;;14.50;99.90;;;;;;5046347;28;20797;-76
2023/05/09 01:48:34;;;;;;;67.97;40.92;;;14.50;99.90;;;;;;5054773;28;20495;-76
2023/05/09 01:51:00;;;;;;;70.15;41.83;;;14.50;99.90;;;;;;5049649;28;20451;-76
2023/05/09 01:53:28;;;;;;;81.40;47.42;;;14.60;99.90;;;;;;5047050;28;20478;-76
2023/05/09 01:55:55;;;;;;;69.18;40.95;;;14.60;99.90;;;;;;5051417;28;20457;-75
2023/05/09 01:58:22;;;;;;;71.27;43.43;;;14.40;99.90;;;;;;5045105;28;20417;-75
2023/05/09 02:00:49;;;;;;;86.00;45.83;;;14.70;99.90;;;;;;5044730;28;20437;-75
2023/05/09 02:03:15;;;;;;;81.32;43.17;;;14.50;99.90;;;;;;5065226;28;20427;-76
2023/05/09 02:05:43;;;;;;;73.65;44.10;;;14.70;99.90;;;;;;5045113;28;20446;-75
2023/05/09 02:08:09;;;;;;;69.90;43.55;;;14.70;99.90;;;;;;5047335;28;20409;-74
2023/05/09 02:10:36;;;;;;;64.80;41.33;;;14.50;99.90;;;;;;5054600;28;20480;-75
2023/05/09 02:13:02;;;;;;;67.10;42.63;;;14.40;99.90;;;;;;5051613;28;20425;-74
2023/05/09 02:15:30;;;;;;;66.30;42.10;;;14.60;99.90;;;;;;5057251;28;20442;-76
2023/05/09 02:17:56;;;;;;;63.67;41.67;;;14.40;99.90;;;;;;5044758;28;20416;-76
2023/05/09 02:20:21;;;;;;;61.00;38.57;;;14.60;99.90;;;;;;5051033;28;20506;-76
2023/05/09 02:22:47;;;;;;;65.53;42.70;;;14.50;99.90;;;;;;5066477;28;20423;-76
2023/05/09 02:25:17;;;;;;;70.60;41.67;;;14.60;99.90;;;;;;5049509;28;20777;-76
2023/05/09 02:27:44;;;;;;;71.70;43.20;;;14.60;99.90;;;;;;5057182;28;20410;-76
2023/05/09 02:30:17;;;;;;;67.90;39.43;;;14.40;99.90;;;;;;5029762;28;20437;-76
2023/05/09 02:32:46;;;;;;;67.88;41.10;;;14.60;99.90;;;;;;5029561;28;20512;-75
2023/05/09 02:35:13;;;;;;;73.47;43.08;;;14.40;99.90;;;;;;5045090;28;20433;-75
2023/05/09 02:37:39;;;;;;;70.93;43.50;;;14.60;99.90;;;;;;5045698;28;20432;-75
2023/05/09 02:40:08;;;;;;;70.63;42.28;;;14.40;99.90;;;;;;5047056;28;20512;-75
2023/05/09 02:42:34;;;;;;;72.75;42.08;;;14.50;99.90;;;;;;5054671;28;20902;-76
2023/05/09 02:44:59;;;;;;;73.73;43.47;;;14.50;99.90;;;;;;5058738;28;20980;-75
2023/05/09 02:47:25;;;;;;;64.43;41.90;;;14.60;99.90;;;;;;5048178;28;20417;-75
2023/05/09 02:49:51;;;;;;;75.57;45.97;;;14.60;99.90;;;;;;5046069;28;20504;-75
2023/05/09 02:52:16;;;;;;;68.67;40.60;;;14.50;99.90;;;;;;5048932;28;20465;-75
2023/05/09 02:54:42;;;;;;;74.22;44.00;;;14.40;99.90;;;;;;5060863;28;20416;-76
2023/05/09 02:57:08;;;;;;;73.20;44.40;;;14.50;99.90;;;;;;5045618;28;20826;-75
2023/05/09 02:59:34;;;;;;;75.80;42.95;;;14.40;99.90;;;;;;5045422;28;20445;-75
2023/05/09 03:01:59;;;;;;;70.27;42.90;;;14.40;99.90;;;;;;5046304;28;20453;-76
2023/05/09 03:04:26;;;;;;;80.77;46.33;;;14.60;99.90;;;;;;5047361;28;20478;-74
2023/05/09 03:06:51;;;;;;;71.28;42.63;;;14.40;99.90;;;;;;5051427;28;20425;-75
2023/05/09 03:09:17;;;;;;;68.15;43.42;;;14.40;99.90;;;;;;5045691;28;20429;-75
2023/05/09 03:11:43;;;;;;;72.83;44.27;;;14.40;99.90;;;;;;5042868;28;20442;-76
2023/05/09 03:14:10;;;;;;;79.37;46.27;;;14.40;99.90;;;;;;5058940;28;20423;-75
2023/05/09 03:16:36;;;;;;;76.18;47.10;;;14.50;99.90;;;;;;5048899;28;20413;-76
2023/05/09 03:19:02;;;;;;;80.55;47.10;;;14.30;99.90;;;;;;5054676;28;20432;-75
2023/05/09 03:21:28;;;;;;;75.75;47.42;;;14.40;99.90;;;;;;5050709;28;20413;-76
2023/05/09 03:23:55;;;;;;;76.75;46.50;;;14.40;99.90;;;;;;5048552;28;20494;-74
2023/05/09 03:26:20;;;;;;;79.05;46.67;;;14.40;99.90;;;;;;5046530;28;20473;-75
2023/05/09 03:28:47;;;;;;;80.75;48.70;;;14.50;99.90;;;;;;5046574;28;20542;-76
2023/05/09 03:31:13;;;;;;;83.30;47.05;;;14.40;99.90;;;;;;5059283;28;20440;-75
2023/05/09 03:33:39;;;;;;;79.47;46.42;;;14.60;99.90;;;;;;5053482;28;20818;-76
2023/05/09 03:36:05;;;;;;;83.00;48.15;;;14.40;99.90;;;;;;5048998;28;20437;-75
2023/05/09 03:38:31;;;;;;;79.35;46.35;;;14.30;99.90;;;;;;5063360;28;20417;-74
2023/05/09 03:40:56;;;;;;;81.72;46.40;;;14.50;99.90;;;;;;5058274;28;20524;-74
2023/05/09 03:43:22;;;;;;;88.85;50.35;;;14.60;99.90;;;;;;5055334;28;20421;-75
2023/05/09 03:45:48;;;;;;;79.73;50.37;;;14.40;99.90;;;;;;5049491;28;20437;-75
2023/05/09 03:48:13;;;;;;;80.03;47.80;;;14.60;99.90;;;;;;5057943;28;20426;-75
2023/05/09 03:50:39;;;;;;;85.45;51.47;;;14.70;99.90;;;;;;5046631;28;20419;-74
2023/05/09 03:53:05;;;;;;;82.55;49.75;;;14.50;99.90;;;;;;5046168;28;20896;-74
2023/05/09 03:55:31;;;;;;;85.40;48.92;;;14.60;99.90;;;;;;5048291;28;20439;-74
2023/05/09 03:57:57;;;;;;;84.78;50.85;;;14.40;99.90;;;;;;5050815;28;20411;-75
2023/05/09 04:00:22;;;;;;;85.17;50.77;;;14.40;99.90;;;;;;5065722;28;20427;-75
2023/05/09 04:02:48;;;;;;;81.10;47.07;;;14.40;99.90;;;;;;5052700;28;20421;-76
2023/05/09 04:05:15;;;;;;;81.55;48.90;;;14.50;99.90;;;;;;5061928;28;20442;-75
2023/05/09 04:07:41;;;;;;;85.47;50.55;;;14.60;99.90;;;;;;5054179;28;20549;-75
2023/05/09 04:10:07;;;;;;;71.17;44.83;;;14.40;99.90;;;;;;5045623;28;20500;-74
2023/05/09 04:12:33;;;;;;;82.82;50.40;;;14.40;99.90;;;;;;5044984;28;20430;-75
2023/05/09 04:14:59;;;;;;;82.07;49.80;;;14.40;99.90;;;;;;5058071;28;20407;-76
2023/05/09 04:17:24;;;;;;;85.75;49.30;;;14.50;99.90;;;;;;5060417;28;20430;-75
2023/05/09 04:19:50;;;;;;;81.30;47.88;;;14.40;99.90;;;;;;5050928;28;20425;-75
2023/05/09 04:22:16;;;;;;;83.40;50.33;;;14.30;99.90;;;;;;5044770;28;20534;-74
2023/05/09 04:24:42;;;;;;;87.93;51.47;;;14.30;99.90;;;;;;5057023;28;20975;-75
2023/05/09 04:27:07;;;;;;;88.63;52.28;;;14.60;99.90;;;;;;5049652;28;20435;-75
2023/05/09 04:29:34;;;;;;;82.82;49.33;;;14.50;99.90;;;;;;5062940;28;20907;-75
2023/05/09 04:32:00;;;;;;;89.63;51.43;;;14.40;99.90;;;;;;5060399;28;20499;-75
2023/05/09 04:34:27;;;;;;;81.15;49.20;;;14.70;99.90;;;;;;5055482;28;20738;-76
2023/05/09 04:36:53;;;;;;;85.70;49.60;;;14.60;99.90;;;;;;5049353;28;20436;-75
2023/05/09 04:39:18;;;;;;;86.55;51.33;;;14.70;99.90;;;;;;5066126;28;20415;-76
2023/05/09 04:41:46;;;;;;;81.70;49.92;;;14.40;99.90;;;;;;5053850;28;20996;-76
2023/05/09 04:44:12;;;;;;;81.60;51.03;;;14.60;99.90;;;;;;5060494;28;20431;-76
2023/05/09 04:46:39;;;;;;;81.50;52.38;;;14.60;99.90;;;;;;5047506;28;20437;-75
2023/05/09 04:49:05;;;;;;;80.00;48.95;;;14.70;99.90;;;;;;5063129;28;20500;-75
2023/05/09 04:51:30;;;;;;;79.60;49.77;;;14.50;99.90;;;;;;5067472;28;20496;-76
2023/05/09 04:53:56;;;;;;;78.10;48.70;;;14.80;99.90;;;;;;5054537;28;20419;-74
2023/05/09 04:56:22;;;;;;;78.90;49.67;;;14.70;99.90;;;;;;5055702;28;20433;-75
2023/05/09 04:58:48;;;;;;;80.57;49.72;;;14.50;99.90;;;;;;5047894;28;20423;-75
2023/05/09 05:01:15;;;;;;;79.32;50.47;;;14.40;99.90;;;;;;5054068;28;20503;-74
2023/05/09 05:03:41;;;;;;;78.63;48.47;;;14.70;99.90;;;;;;5048316;28;20429;-74
2023/05/09 05:06:06;;;;;;;81.83;50.50;;;14.60;99.90;;;;;;5060472;28;20430;-74
2023/05/09 05:08:32;;;;;;;78.47;48.83;;;14.50;99.90;;;;;;5049437;28;20417;-74
2023/05/09 05:10:58;;;;;;;83.60;49.67;;;14.40;99.90;;;;;;5053005;28;20451;-75
2023/05/09 05:13:23;;;;;;;74.23;47.87;;;14.70;99.90;;;;;;5056414;28;20451;-75
2023/05/09 05:15:49;;;;;;;81.03;49.47;;;14.50;99.90;;;;;;5046753;28;22143;-75
2023/05/09 05:18:15;;;;;;;78.60;50.47;;;14.70;99.90;;;;;;5050385;28;20416;-74
2023/05/09 05:20:41;;;;;;;80.80;49.65;;;14.80;99.90;;;;;;5046531;28;20425;-75
2023/05/09 05:23:07;;;;;;;82.55;50.35;;;14.70;99.90;;;;;;5052847;28;20509;-73
2023/05/09 05:25:33;;;;;;;83.75;52.58;;;14.70;99.90;;;;;;5064907;28;20432;-74
2023/05/09 05:27:58;;;;;;;81.43;49.47;;;14.80;99.90;;;;;;5045752;28;20421;-74
2023/05/09 05:30:24;;;;;;;91.53;54.77;;;14.90;99.90;;;;;;5055798;28;22220;-74
2023/05/09 05:32:50;;;;;;;79.95;53.28;;;14.90;99.90;;;;;;5048591;28;20443;-76
2023/05/09 05:35:16;;;;;;;85.35;51.22;;;14.90;99.90;;;;;;5034622;28;20489;-75
2023/05/09 05:37:42;;;;;;;85.93;52.53;;;14.90;99.90;;;;;;5047261;28;20514;-75
2023/05/09 05:40:08;;;;;;;81.10;52.53;;;15.00;99.90;;;;;;5049122;28;20879;-75
2023/05/09 05:42:34;;;;;;;85.57;52.67;;;15.10;99.90;;;;;;5047853;28;20416;-75
2023/05/09 05:45:03;;;;;;;98.82;56.65;;;15.10;99.90;;;;;;5054621;28;20429;-74
2023/05/09 05:47:32;;;;;;;86.40;55.37;;;15.10;99.90;;;;;;5046507;28;20840;-75
2023/05/09 05:50:02;;;;;;;86.03;52.03;;;15.10;99.90;;;;;;5059098;28;20424;-76
2023/05/09 05:52:28;;;;;;;82.53;51.95;;;15.40;99.90;;;;;;5046438;28;20438;-76
2023/05/09 05:54:54;;;;;;;81.78;52.83;;;15.30;99.90;;;;;;5063217;28;20431;-74
2023/05/09 05:57:20;;;;;;;96.45;57.08;;;15.50;99.90;;;;;;5055977;28;20439;-76
2023/05/09 05:59:47;;;;;;;95.03;54.50;;;15.40;99.90;;;;;;5046146;28;20494;-75
2023/05/09 06:02:13;;;;;;;88.05;54.00;;;15.50;99.90;;;;;;5041898;28;20458;-75
2023/05/09 06:04:39;;;;;;;82.60;53.58;;;15.80;99.90;;;;;;5046098;28;20421;-75
2023/05/09 06:07:05;;;;;;;80.55;53.20;;;15.40;99.90;;;;;;5045621;28;20433;-75
2023/05/09 06:09:31;;;;;;;80.60;52.20;;;15.40;99.90;;;;;;5044394;28;20432;-75
2023/05/09 06:11:56;;;;;;;86.53;56.43;;;15.30;99.90;;;;;;5047510;28;20422;-75
2023/05/09 06:14:22;;;;;;;85.67;57.23;;;15.50;99.90;;;;;;5045137;28;20462;-75
2023/05/09 06:16:48;;;;;;;79.35;54.10;;;15.50;99.90;;;;;;5045057;28;20781;-75
2023/05/09 06:19:13;;;;;;;83.30;55.15;;;15.60;99.90;;;;;;5046440;28;20452;-76
2023/05/09 06:21:39;;;;;;;90.30;57.03;;;15.80;99.90;;;;;;5046103;28;21245;-75
2023/05/09 06:24:05;;;;;;;85.53;56.97;;;15.50;99.90;;;;;;5046796;28;20417;-76
2023/05/09 06:26:31;;;;;;;84.90;54.13;;;15.50;99.90;;;;;;5043426;28;20425;-75
2023/05/09 06:28:56;;;;;;;87.33;55.57;;;15.80;99.90;;;;;;5047069;28;20718;-75
2023/05/09 06:31:22;;;;;;;82.78;54.13;;;15.80;99.90;;;;;;5045835;28;20516;-75
2023/05/09 06:33:47;;;;;;;83.43;54.47;;;15.70;99.90;;;;;;5045604;28;20963;-75
2023/05/09 06:36:13;;;;;;;90.87;56.63;;;15.70;99.90;;;;;;5029692;28;20919;-75
2023/05/09 06:38:39;;;;;;;84.93;57.20;;;15.80;99.90;;;;;;5027215;28;20572;-75
2023/05/09 06:41:04;;;;;;;83.55;57.25;;;15.50;99.90;;;;;;5026988;28;20414;-75
2023/05/09 06:43:30;;;;;;;85.13;56.40;;;15.80;99.90;;;;;;5027126;28;20466;-75
2023/05/09 06:45:55;;;;;;;84.83;56.27;;;15.80;99.90;;;;;;5038375;28;20460;-77
2023/05/09 06:48:22;;;;;;;84.87;56.33;;;15.90;99.90;;;;;;5044928;28;20418;-75
2023/05/09 06:50:48;;;;;;;89.53;56.38;;;16.00;99.90;;;;;;5042942;28;20411;-74
2023/05/09 06:53:15;;;;;;;86.00;57.45;;;16.00;99.90;;;;;;5026738;28;20418;-74
2023/05/09 06:55:41;;;;;;;76.67;54.73;;;15.80;99.90;;;;;;5032036;28;20444;-75
2023/05/09 06:58:07;;;;;;;81.55;56.92;;;15.90;99.90;;;;;;5045227;28;20859;-75
2023/05/09 07:00:32;;;;;;;79.03;52.92;;;15.90;99.90;;;;;;5044585;28;20433;-75
2023/05/09 07:02:58;;;;;;;82.05;55.28;;;16.00;99.90;;;;;;5045940;28;21019;-75
2023/05/09 07:05:24;;;;;;;77.20;53.50;;;15.90;99.90;;;;;;5045120;28;20425;-73
2023/05/09 07:07:50;;;;;;;84.33;57.27;;;16.10;99.90;;;;;;5044404;28;20429;-74
2023/05/09 07:10:16;;;;;;;80.78;56.42;;;16.30;99.90;;;;;;5045880;28;20489;-75
2023/05/09 07:12:41;;;;;;;80.28;56.95;;;16.30;99.90;;;;;;5044751;28;20425;-75
2023/05/09 07:15:08;;;;;;;75.78;55.17;;;16.50;99.90;;;;;;5044652;28;20421;-75
2023/05/09 07:17:33;;;;;;;78.75;57.92;;;16.20;99.90;;;;;;5045764;28;20429;-75
2023/05/09 07:19:59;;;;;;;79.73;57.50;;;16.30;99.90;;;;;;5040759;28;20420;-74
2023/05/09 07:22:25;;;;;;;78.23;57.77;;;16.70;99.90;;;;;;5050402;28;20429;-75
2023/05/09 07:24:51;;;;;;;72.47;54.67;;;16.80;99.90;;;;;;5061262;28;20432;-75
2023/05/09 07:27:16;;;;;;;76.78;57.03;;;16.40;99.90;;;;;;5042839;28;20437;-76
2023/05/09 07:29:42;;;;;;;75.10;55.33;;;16.20;99.90;;;;;;5032822;28;20421;-74
2023/05/09 07:32:08;;;;;;;74.83;54.10;;;16.50;99.90;;;;;;5041716;28;20429;-75
2023/05/09 07:34:34;;;;;;;78.90;55.90;;;16.50;99.90;;;;;;5045834;28;20504;-75
2023/05/09 07:37:00;;;;;;;77.38;55.97;;;16.40;99.90;;;;;;5045017;28;20425;-74
2023/05/09 07:39:25;;;;;;;74.80;56.17;;;16.30;99.90;;;;;;5041316;28;20424;-75
2023/05/09 07:41:51;;;;;;;76.83;54.73;;;16.30;99.90;;;;;;5061356;28;20503;-74
2023/05/09 07:44:17;;;;;;;81.35;57.47;;;16.40;99.90;;;;;;5047474;28;20468;-74
2023/05/09 07:46:42;;;;;;;77.93;55.35;;;16.50;99.90;;;;;;5044936;28;20429;-74
2023/05/09 07:49:08;;;;;;;69.80;52.73;;;16.60;99.90;;;;;;5028394;28;20869;-75
2023/05/09 07:51:34;;;;;;;72.70;53.23;;;16.80;99.90;;;;;;5045243;28;20500;-74
2023/05/09 07:54:00;;;;;;;70.37;51.83;;;16.80;99.90;;;;;;5045009;28;20414;-74
2023/05/09 07:56:25;;;;;;;72.87;53.90;;;16.90;99.90;;;;;;5045138;28;20456;-74
2023/05/09 07:58:51;;;;;;;75.15;53.33;;;16.90;99.90;;;;;;5046278;28;20464;-74
2023/05/09 08:01:17;;;;;;;69.35;51.17;;;16.90;99.90;;;;;;5049255;28;20435;-74
2023/05/09 08:03:42;;;;;;;67.60;51.80;;;16.80;99.90;;;;;;5042490;28;20420;-73
2023/05/09 08:06:08;;;;;;;67.77;50.07;;;16.90;99.90;;;;;;5047555;28;20436;-73
2023/05/09 08:08:34;;;;;;;65.65;49.25;;;16.60;99.90;;;;;;5049160;28;20817;-74
2023/05/09 08:10:59;;;;;;;54.97;42.95;;;16.90;99.90;;;;;;5048044;28;20444;-75
2023/05/09 08:13:25;;;;;;;52.27;41.23;;;16.70;99.90;;;;;;5044476;28;20421;-74
2023/05/09 08:15:51;;;;;;;44.63;37.90;;;16.50;99.90;;;;;;5044063;28;20941;-74
2023/05/09 08:18:16;;;;;;;46.38;35.70;;;16.50;99.90;;;;;;5051316;28;20865;-74
2023/05/09 08:20:42;;;;;;;48.13;38.67;;;16.50;99.90;;;;;;5052994;28;20455;-74
2023/05/09 08:23:08;;;;;;;48.93;38.53;;;16.60;99.90;;;;;;5064109;28;20780;-74
2023/05/09 08:25:34;;;;;;;49.90;38.17;;;16.60;99.90;;;;;;5050892;28;20484;-74
2023/05/09 08:27:59;;;;;;;49.33;38.87;;;16.50;99.90;;;;;;5048834;28;20421;-74
2023/05/09 08:30:28;;;;;;;50.90;38.13;;;16.70;99.90;;;;;;5048043;28;20506;-76
2023/05/09 08:32:54;;;;;;;49.65;40.10;;;16.60;99.90;;;;;;5045757;28;20609;-73
2023/05/09 08:35:19;;;;;;;48.88;37.47;;;16.70;99.90;;;;;;5047759;28;20542;-73
2023/05/09 08:37:46;;;;;;;50.53;38.13;;;16.70;99.90;;;;;;5068041;28;20427;-73
2023/05/09 08:40:13;;;;;;;50.97;37.33;;;16.90;99.90;;;;;;5050713;28;20904;-73
2023/05/09 08:42:43;;;;;;;44.78;35.90;;;17.00;99.90;;;;;;5047692;28;20443;-73
2023/05/09 08:45:09;;;;;;;43.88;35.50;;;16.90;99.90;;;;;;5039129;28;20452;-73
2023/05/09 08:47:37;;;;;;;46.17;36.15;;;17.00;99.90;;;;;;5048449;28;20796;-73
2023/05/09 08:50:03;;;;;;;43.90;35.10;;;16.90;99.90;;;;;;5048561;28;20443;-74
2023/05/09 08:52:32;;;;;;;41.35;34.63;;;16.80;99.90;;;;;;5052436;28;20433;-73
2023/05/09 08:55:05;;;;;;;44.88;34.90;;;17.10;99.90;;;;;;5044765;28;20455;-73
2023/05/09 08:57:36;;;;;;;39.58;32.58;;;17.30;99.90;;;;;;5048828;28;20463;-73
2023/05/09 09:00:08;;;;;;;37.00;30.67;;;17.30;99.90;;;;;;5047217;28;20429;-74
2023/05/09 09:02:39;;;;;;;39.60;31.67;;;17.40;99.90;;;;;;5043252;28;20496;-73
2023/05/09 09:05:06;;;;;;;33.60;27.90;;;17.30;99.90;;;;;;5035330;28;20440;-74
2023/05/09 09:07:34;;;;;;;38.05;29.60;;;17.30;99.90;;;;;;5050918;28;20453;-74
2023/05/09 09:10:01;;;;;;;33.20;27.40;;;17.60;99.90;;;;;;5046491;28;20775;-74
2023/05/09 09:12:27;;;;;;;36.28;29.65;;;17.60;99.90;;;;;;5050456;28;20814;-74
2023/05/09 09:14:54;;;;;;;37.38;29.38;;;17.60;99.90;;;;;;5061596;28;20507;-75
2023/05/09 09:17:26;;;;;;;37.50;28.70;;;17.80;99.90;;;;;;5049999;28;20436;-74
2023/05/09 09:19:56;;;;;;;37.05;29.90;;;17.90;99.90;;;;;;5045437;28;20413;-74
2023/05/09 09:22:22;;;;;;;38.07;28.77;;;18.10;99.90;;;;;;5048806;28;20500;-74
2023/05/09 09:24:49;;;;;;;34.53;29.13;;;18.00;99.90;;;;;;5067341;28;20407;-74
2023/05/09 09:27:14;;;;;;;35.10;29.25;;;18.30;99.90;;;;;;5040990;28;20434;-74
2023/05/09 09:29:40;;;;;;;35.07;29.17;;;18.30;99.90;;;;;;5048758;28;20425;-75
2023/05/09 09:32:06;;;;;;;30.17;25.08;;;18.30;99.90;;;;;;5045070;28;20425;-74
2023/05/09 09:34:32;;;;;;;32.35;25.85;;;18.30;99.90;;;;;;5061454;28;20912;-74
2023/05/09 09:36:58;;;;;;;29.25;23.10;;;18.50;99.90;;;;;;5045724;28;20421;-75
2023/05/09 09:39:23;;;;;;;26.38;21.85;;;18.50;99.90;;;;;;5045252;28;20435;-74
2023/05/09 09:41:49;;;;;;;25.63;20.07;;;18.40;99.90;;;;;;5064286;28;20452;-74
2023/05/09 09:44:17;;;;;;;26.47;20.00;;;18.20;99.90;;;;;;5058682;28;20424;-75
2023/05/09 09:46:51;;;;;;;28.90;21.97;;;18.30;99.90;;;;;;5042926;28;20454;-74
2023/05/09 09:49:19;;;;;;;25.43;20.30;;;18.60;99.90;;;;;;5048078;28;20417;-75
2023/05/09 09:51:55;;;;;;;23.67;20.97;;;18.60;99.90;;;;;;5053825;28;20514;-74
2023/05/09 09:54:24;;;;;;;24.85;20.88;;;18.70;99.90;;;;;;5054734;28;20458;-74
2023/05/09 09:56:53;;;;;;;24.05;20.15;;;18.70;99.90;;;;;;5063413;28;20431;-74
2023/05/09 09:59:24;;;;;;;25.92;20.88;;;18.90;99.90;;;;;;5050345;28;20433;-76
2023/05/09 10:02:00;;;;;;;23.67;21.13;;;18.80;99.90;;;;;;5048105;28;20482;-77
2023/05/09 10:04:29;;;;;;;24.63;21.20;;;18.80;99.90;;;;;;5031316;28;20513;-76
2023/05/09 10:07:07;;;;;;;29.07;24.67;;;18.90;99.90;;;;;;5044518;28;20438;-76
2023/05/09 10:09:34;;;;;;;25.05;21.27;;;18.70;99.90;;;;;;5060820;28;20421;-79
2023/05/09 10:12:03;;;;;;;25.65;20.90;;;18.70;99.90;;;;;;5058634;28;20984;-78
2023/05/09 10:14:31;;;;;;;22.80;19.92;;;18.50;99.90;;;;;;5038397;28;20449;-77
2023/05/09 10:16:59;;;;;;;24.15;21.00;;;18.60;99.90;;;;;;5045262;28;20423;-78
2023/05/09 10:19:28;;;;;;;21.70;19.13;;;18.50;99.90;;;;;;5051488;28;20425;-78
2023/05/09 10:21:58;;;;;;;25.63;20.48;;;18.40;99.90;;;;;;5041250;28;20761;-78
2023/05/09 10:24:34;;;;;;;25.50;20.90;;;18.30;99.90;;;;;;5046794;28;20440;-77
2023/05/09 10:27:07;;;;;;;22.88;20.33;;;18.40;99.90;;;;;;5048628;28;20442;-76
2023/05/09 10:29:40;;;;;;;21.58;19.25;;;18.30;99.90;;;;;;5045802;28;20992;-76
2023/05/09 10:32:31;;;;;;;25.92;21.98;;;18.50;99.90;;;;;;5043832;28;20949;-76
2023/05/09 10:35:03;;;;;;;23.80;20.27;;;18.60;99.90;;;;;;5041816;28;20467;-78
2023/05/09 10:37:30;;;;;;;23.63;19.75;;;18.60;99.90;;;;;;5051936;28;20420;-77
2023/05/09 10:39:56;;;;;;;22.45;20.00;;;18.50;99.90;;;;;;5064856;28;20415;-77
2023/05/09 10:42:27;;;;;;;27.92;21.60;;;18.40;99.90;;;;;;5047197;28;20941;-77
2023/05/09 10:44:53;;;;;;;26.33;22.40;;;18.30;99.90;;;;;;5048198;28;20555;-77
2023/05/09 10:47:20;;;;;;;23.90;21.30;;;18.40;99.90;;;;;;5048829;28;20409;-77
2023/05/09 10:49:46;;;;;;;27.02;21.10;;;18.40;99.90;;;;;;5046982;28;20422;-77
2023/05/09 10:52:13;;;;;;;22.38;19.92;;;18.20;99.90;;;;;;5042662;28;20436;-75
2023/05/09 10:54:38;;;;;;;25.92;21.88;;;18.30;99.90;;;;;;5041392;28;20455;-75
2023/05/09 10:57:07;;;;;;;21.15;18.80;;;18.40;99.90;;;;;;5031728;28;20437;-76
2023/05/09 10:59:42;;;;;;;23.15;20.67;;;18.60;99.90;;;;;;5034812;28;20414;-74
2023/05/09 11:02:19;;;;;;;21.95;19.58;;;18.60;99.90;;;;;;5064050;28;20467;-74
2023/05/09 11:04:46;;;;;;;20.48;17.30;;;18.60;99.90;;;;;;5050201;28;20562;-76
2023/05/09 11:07:25;;;;;;;20.52;18.30;;;18.60;99.90;;;;;;5041652;28;20497;-75
2023/05/09 11:10:13;;;;;;;21.40;19.00;;;18.40;99.90;;;;;;5055687;28;20408;-77
2023/05/09 11:12:59;;;;;;;22.88;19.30;;;18.20;99.90;;;;;;5056809;28;20528;-77
2023/05/09 11:15:28;;;;;;;22.30;17.88;;;18.30;99.90;;;;;;5045788;28;20806;-77
2023/05/09 11:18:09;;;;;;;23.48;18.63;;;18.20;99.90;;;;;;5056243;28;20428;-77
2023/05/09 11:20:41;;;;;;;20.27;18.02;;;18.20;99.90;;;;;;5064398;28;20419;-77
2023/05/09 11:23:09;;;;;;;18.27;16.38;;;18.00;99.90;;;;;;5052229;28;20420;-76
2023/05/09 11:25:35;;;;;;;20.90;18.20;;;18.00;99.90;;;;;;5030189;28;20446;-76
2023/05/09 11:28:01;;;;;;;19.37;17.27;;;18.20;99.90;;;;;;5031676;28;20414;-77
2023/05/09 11:30:39;;;;;;;20.52;18.00;;;18.40;99.90;;;;;;5046116;28;20413;-77
2023/05/09 11:33:05;;;;;;;21.60;16.80;;;18.30;99.90;;;;;;5044287;28;20417;-78
2023/05/09 11:35:33;;;;;;;19.47;17.30;;;18.30;99.90;;;;;;5046005;28;20421;-79
2023/05/09 11:38:03;;;;;;;20.75;17.50;;;18.30;99.90;;;;;;5043190;28;20441;-78
2023/05/09 11:40:30;;;;;;;20.30;16.47;;;18.30;99.90;;;;;;5044277;28;20489;-77
2023/05/09 11:42:57;;;;;;;21.70;18.05;;;18.40;99.90;;;;;;5045446;28;20825;-77
2023/05/09 11:45:26;;;;;;;22.88;19.08;;;18.40;99.90;;;;;;5040309;28;20749;-77
2023/05/09 11:47:52;;;;;;;18.63;16.63;;;18.70;99.90;;;;;;5045919;28;20788;-77
2023/05/09 11:50:19;;;;;;;18.40;16.50;;;18.60;99.90;;;;;;5045158;28;20500;-77
2023/05/09 11:52:46;;;;;;;21.75;17.40;;;18.70;99.90;;;;;;5045289;28;20417;-77
2023/05/09 11:55:17;;;;;;;17.90;16.00;;;18.80;99.90;;;;;;5046737;28;20460;-76
2023/05/09 11:57:48;;;;;;;19.10;16.80;;;18.80;99.90;;;;;;5046601;28;20957;-76
2023/05/09 12:00:18;;;;;;;18.30;16.33;;;18.80;99.90;;;;;;5045606;28;20429;-76
2023/05/09 12:02:44;;;;;;;22.77;18.55;;;18.60;99.90;;;;;;5046137;28;20500;-76
2023/05/09 12:05:12;;;;;;;18.98;16.45;;;18.70;99.90;;;;;;5046857;28;20508;-76
2023/05/09 12:07:39;;;;;;;20.83;17.30;;;18.70;99.90;;;;;;5044465;28;20480;-76
2023/05/09 12:10:07;;;;;;;18.48;16.58;;;18.60;99.90;;;;;;5045575;28;20413;-77
2023/05/09 12:12:35;;;;;;;18.90;16.65;;;18.70;99.90;;;;;;5045978;28;20522;-76
2023/05/09 12:15:07;;;;;;;21.70;17.80;;;18.50;99.90;;;;;;5044193;28;20401;-78
2023/05/09 12:17:33;;;;;;;22.70;20.07;;;18.50;99.90;;;;;;5045154;28;20429;-78
2023/05/09 12:20:03;;;;;;;22.25;19.77;;;18.30;99.90;;;;;;5046658;28;20413;-77
2023/05/09 12:22:29;;;;;;;25.17;20.58;;;18.30;99.90;;;;;;5045840;28;20929;-79
2023/05/09 12:24:55;;;;;;;23.42;20.45;;;18.40;99.90;;;;;;5046880;28;20830;-79
2023/05/09 12:27:22;;;;;;;24.70;21.33;;;18.30;99.90;;;;;;5050108;28;20430;-79
2023/05/09 12:29:48;;;;;;;24.08;20.10;;;18.20;99.90;;;;;;5044169;28;20421;-78
2023/05/09 12:32:15;;;;;;;24.48;21.13;;;18.40;99.90;;;;;;5042412;28;20421;-77